createdAt,value
2023-03-03T00:01:30.528Z,49.13
2023-03-03T00:03:57.602Z,49.20
2023-03-03T00:06:24.952Z,46.28
2023-03-03T00:08:52.386Z,50.28
2023-03-03T00:11:19.294Z,47.53
2023-03-03T00:13:56.956Z,58.00
2023-03-03T00:16:26.545Z,51.85
2023-03-03T00:18:53.866Z,51.70
2023-03-03T00:21:41.261Z,52.42
2023-03-03T00:24:37.730Z,55.65
2023-03-03T00:27:29.204Z,48.42
2023-03-03T00:29:58.449Z,46.60
2023-03-03T00:32:59.279Z,59.33
2023-03-03T00:35:38.831Z,54.38
2023-03-03T00:38:18.302Z,49.30
2023-03-03T00:40:46.353Z,51.65
2023-03-03T00:43:24.455Z,53.15
2023-03-03T00:45:55.101Z,49.72
2023-03-03T00:48:24.546Z,47.03
2023-03-03T00:50:56.438Z,57.65
2023-03-03T00:53:25.279Z,54.75
2023-03-03T00:55:53.342Z,44.60
2023-03-03T00:58:21.846Z,52.47
2023-03-03T01:00:50.304Z,47.53
2023-03-03T01:03:19.913Z,54.50
2023-03-03T01:05:47.028Z,52.85
2023-03-03T01:08:32.237Z,53.92
2023-03-03T01:11:03.611Z,58.55
2023-03-03T01:13:37.925Z,51.40
2023-03-03T01:16:05.570Z,56.08
2023-03-03T01:18:32.876Z,69.65
2023-03-03T01:20:59.715Z,51.88
2023-03-03T01:23:26.395Z,55.38
2023-03-03T01:25:56.156Z,56.83
2023-03-03T01:28:22.791Z,55.35
2023-03-03T01:30:49.534Z,59.92
2023-03-03T01:33:16.357Z,58.97
2023-03-03T01:35:47.184Z,50.20
2023-03-03T01:38:15.164Z,58.60
2023-03-03T01:40:42.026Z,59.63
2023-03-03T01:43:08.924Z,53.65
2023-03-03T01:45:47.472Z,69.88
2023-03-03T01:48:29.706Z,53.50
2023-03-03T01:51:03.608Z,63.35
2023-03-03T01:53:45.967Z,58.38
2023-03-03T01:56:14.558Z,60.33
2023-03-03T01:59:01.632Z,57.97
2023-03-03T02:01:29.893Z,62.00
2023-03-03T02:03:57.194Z,63.35
2023-03-03T02:06:29.872Z,57.42
2023-03-03T02:08:59.800Z,51.00
2023-03-03T02:11:27.473Z,56.30
2023-03-03T02:13:54.125Z,62.75
2023-03-03T02:16:29.709Z,57.97
2023-03-03T02:18:56.713Z,69.60
2023-03-03T02:21:30.470Z,64.65
2023-03-03T02:24:08.997Z,58.72
2023-03-03T02:26:51.181Z,63.65
2023-03-03T02:29:17.894Z,56.28
2023-03-03T02:31:44.633Z,62.45
2023-03-03T02:34:11.535Z,56.30
2023-03-03T02:36:39.745Z,57.20
2023-03-03T02:39:24.817Z,58.78
2023-03-03T02:42:04.037Z,66.45
2023-03-03T02:44:46.017Z,59.20
2023-03-03T02:47:12.915Z,69.65
2023-03-03T02:49:39.626Z,61.08
2023-03-03T02:52:12.654Z,67.50
2023-03-03T02:54:39.468Z,112.82
2023-03-03T02:57:25.459Z,81.68
2023-03-03T02:59:52.103Z,68.82
2023-03-03T03:02:19.429Z,70.57
2023-03-03T03:04:58.922Z,62.20
2023-03-03T03:07:25.608Z,71.03
2023-03-03T03:09:52.924Z,64.43
2023-03-03T03:12:22.712Z,62.78
2023-03-03T03:14:49.411Z,66.97
2023-03-03T03:17:16.036Z,55.33
2023-03-03T03:19:45.216Z,62.45
2023-03-03T03:22:19.432Z,63.85
2023-03-03T03:24:56.162Z,68.40
2023-03-03T03:27:26.328Z,67.82
2023-03-03T03:29:55.761Z,62.30
2023-03-03T03:32:22.575Z,63.53
2023-03-03T03:34:49.538Z,63.38
2023-03-03T03:37:16.192Z,63.95
2023-03-03T03:39:43.074Z,63.92
2023-03-03T03:42:27.983Z,61.40
2023-03-03T03:44:54.693Z,64.13
2023-03-03T03:47:21.333Z,54.40
2023-03-03T03:49:47.951Z,69.05
2023-03-03T03:52:14.601Z,71.15
2023-03-03T03:54:46.168Z,69.90
2023-03-03T03:57:16.487Z,62.97
2023-03-03T03:59:43.224Z,75.25
2023-03-03T04:02:09.936Z,62.72
2023-03-03T04:04:42.605Z,71.10
2023-03-03T04:07:11.428Z,64.53
2023-03-03T04:09:38.397Z,65.40
2023-03-03T04:12:21.698Z,61.70
2023-03-03T04:14:48.363Z,66.57
2023-03-03T04:17:19.723Z,80.70
2023-03-03T04:19:46.441Z,76.57
2023-03-03T04:22:15.120Z,77.18
2023-03-03T04:24:53.515Z,64.07
2023-03-03T04:27:20.202Z,65.53
2023-03-03T04:29:47.107Z,67.47
2023-03-03T04:32:13.882Z,61.22
2023-03-03T04:34:40.739Z,68.35
2023-03-03T04:37:20.037Z,67.50
2023-03-03T04:39:46.798Z,66.88
2023-03-03T04:42:13.907Z,64.32
2023-03-03T04:44:58.114Z,61.50
2023-03-03T04:47:24.834Z,71.53
2023-03-03T04:49:51.503Z,69.72
2023-03-03T04:52:18.206Z,77.03
2023-03-03T04:54:44.895Z,73.55
2023-03-03T04:57:21.462Z,78.18
2023-03-03T04:59:48.235Z,75.13
2023-03-03T05:02:15.111Z,76.95
2023-03-03T05:04:59.818Z,67.30
2023-03-03T05:07:26.515Z,70.85
2023-03-03T05:09:56.211Z,62.60
2023-03-03T05:12:23.167Z,65.53
2023-03-03T05:14:49.918Z,67.45
2023-03-03T05:17:17.005Z,73.68
2023-03-03T05:19:43.781Z,67.25
2023-03-03T05:22:10.704Z,68.97
2023-03-03T05:24:37.667Z,68.97
2023-03-03T05:27:04.534Z,63.20
2023-03-03T05:29:33.389Z,71.93
2023-03-03T05:32:00.519Z,65.65
2023-03-03T05:34:27.791Z,66.05
2023-03-03T05:36:54.787Z,66.93
2023-03-03T05:39:21.478Z,69.07
2023-03-03T05:41:48.172Z,70.28
2023-03-03T05:44:14.964Z,77.40
2023-03-03T05:46:42.719Z,65.50
2023-03-03T05:49:09.725Z,64.43
2023-03-03T05:51:36.524Z,69.40
2023-03-03T05:54:03.339Z,76.00
2023-03-03T05:56:30.113Z,65.72
2023-03-03T05:58:56.868Z,68.82
2023-03-03T06:01:23.622Z,69.45
2023-03-03T06:03:50.348Z,62.13
2023-03-03T06:06:19.217Z,67.30
2023-03-03T06:08:46.022Z,67.70
2023-03-03T06:11:13.812Z,75.43
2023-03-03T06:13:42.667Z,68.15
2023-03-03T06:16:09.797Z,68.95
2023-03-03T06:18:36.900Z,70.80
2023-03-03T06:21:22.127Z,76.65
2023-03-03T06:23:48.766Z,71.28
2023-03-03T06:26:15.543Z,70.30
2023-03-03T06:28:56.635Z,65.30
2023-03-03T06:31:23.667Z,76.97
2023-03-03T06:33:51.449Z,60.65
2023-03-03T06:36:19.106Z,67.45
2023-03-03T06:38:45.744Z,72.80
2023-03-03T06:41:19.956Z,67.55
2023-03-03T06:43:46.597Z,71.15
2023-03-03T06:46:13.308Z,74.82
2023-03-03T06:48:45.342Z,72.50
2023-03-03T06:51:35.218Z,61.47
2023-03-03T06:54:31.251Z,74.38
2023-03-03T06:57:23.241Z,63.13
2023-03-03T06:59:53.612Z,47.28
2023-03-03T07:02:49.695Z,68.57
2023-03-03T07:05:26.132Z,67.50
2023-03-03T07:07:54.490Z,65.85
2023-03-03T07:10:45.155Z,70.53
2023-03-03T07:13:33.377Z,72.93
2023-03-03T07:16:09.318Z,67.65
2023-03-03T07:18:45.643Z,59.70
2023-03-03T07:21:22.021Z,58.78
2023-03-03T07:23:55.545Z,60.53
2023-03-03T07:26:28.828Z,64.40
2023-03-03T07:29:34.488Z,58.22
2023-03-03T07:32:02.626Z,60.08
2023-03-03T07:34:44.128Z,62.17
2023-03-03T07:37:25.858Z,64.75
2023-03-03T07:40:22.211Z,57.72
2023-03-03T07:42:49.326Z,59.70
2023-03-03T07:45:30.702Z,60.97
2023-03-03T07:48:49.678Z,54.25
2023-03-03T07:51:27.712Z,52.60
2023-03-03T07:54:15.022Z,53.55
2023-03-03T07:56:42.179Z,57.83
2023-03-03T07:59:24.589Z,53.72
2023-03-03T08:02:00.920Z,67.88
2023-03-03T08:04:39.186Z,66.35
2023-03-03T08:07:16.465Z,50.85
2023-03-03T08:10:00.378Z,48.47
2023-03-03T08:12:32.696Z,52.50
2023-03-03T08:17:43.165Z,42.80
2023-03-03T08:20:39.222Z,51.47
2023-03-03T08:23:05.893Z,50.22
2023-03-03T08:25:32.548Z,53.42
2023-03-03T08:28:10.101Z,49.58
2023-03-03T08:30:37.042Z,53.75
2023-03-03T08:33:04.482Z,49.30
2023-03-03T08:35:39.793Z,62.08
2023-03-03T08:38:07.575Z,58.78
2023-03-03T08:40:34.996Z,56.95
2023-03-03T08:43:01.770Z,48.97
2023-03-03T08:45:31.277Z,48.15
2023-03-03T08:47:59.846Z,45.97
2023-03-03T08:50:27.901Z,51.10
2023-03-03T08:52:55.061Z,51.30
2023-03-03T08:55:23.869Z,47.67
2023-03-03T08:57:53.584Z,44.58
2023-03-03T09:00:31.564Z,47.90
2023-03-03T09:03:01.238Z,52.65
2023-03-03T09:05:37.389Z,49.92
2023-03-03T09:08:04.411Z,54.40
2023-03-03T09:10:32.100Z,46.15
2023-03-03T09:13:14.373Z,59.03
2023-03-03T09:15:47.999Z,55.95
2023-03-03T09:18:16.502Z,52.15
2023-03-03T09:20:49.109Z,54.03
2023-03-03T09:23:28.600Z,55.20
2023-03-03T09:25:55.687Z,48.05
2023-03-03T09:28:28.216Z,59.17
2023-03-03T09:30:59.994Z,51.42
2023-03-03T09:33:26.653Z,49.67
2023-03-03T09:36:00.872Z,47.22
2023-03-03T09:38:27.656Z,45.80
2023-03-03T09:41:03.231Z,52.22
2023-03-03T09:43:56.682Z,66.72
2023-03-03T09:46:38.463Z,52.35
2023-03-03T09:49:45.455Z,93.93
2023-03-03T09:52:56.540Z,50.65
2023-03-03T09:56:10.117Z,46.90
2023-03-03T09:58:48.321Z,40.60
2023-03-03T10:01:39.598Z,47.78
2023-03-03T10:05:03.419Z,48.22
2023-03-03T10:07:47.327Z,47.03
2023-03-03T10:10:53.525Z,42.35
2023-03-03T10:13:38.760Z,54.55
2023-03-03T10:16:36.376Z,48.05
2023-03-03T10:19:32.891Z,64.90
2023-03-03T10:22:17.535Z,45.25
2023-03-03T10:25:16.705Z,50.83
2023-03-03T10:28:20.129Z,50.20
2023-03-03T10:31:10.844Z,49.50
2023-03-03T10:34:02.296Z,53.25
2023-03-03T10:36:37.703Z,47.70
2023-03-03T10:39:10.329Z,44.33
2023-03-03T10:42:22.284Z,47.53
2023-03-03T10:45:04.793Z,39.70
2023-03-03T10:50:38.516Z,39.92
2023-03-03T10:53:34.569Z,39.80
2023-03-03T10:56:29.130Z,40.35
2023-03-03T10:59:19.051Z,49.67
2023-03-03T11:01:46.234Z,44.08
2023-03-03T11:04:29.037Z,42.90
2023-03-03T11:07:10.134Z,54.00
2023-03-03T11:10:02.233Z,43.60
2023-03-03T11:12:50.857Z,46.28
2023-03-03T11:15:26.968Z,41.88
2023-03-03T11:18:13.754Z,43.17
2023-03-03T11:20:59.940Z,55.55
2023-03-03T11:23:32.286Z,42.95
2023-03-03T11:28:38.779Z,47.95
2023-03-03T11:31:22.039Z,42.58
2023-03-03T11:34:10.731Z,54.55
2023-03-03T11:36:43.354Z,48.13
2023-03-03T11:39:14.429Z,45.33
2023-03-03T11:41:56.393Z,41.08
2023-03-03T11:44:32.519Z,47.00
2023-03-03T11:47:18.158Z,37.22
2023-03-03T11:50:03.438Z,53.17
2023-03-03T11:52:47.777Z,40.60
2023-03-03T11:55:22.504Z,50.95
2023-03-03T11:57:57.228Z,50.95
2023-03-03T12:00:45.380Z,42.45
2023-03-03T12:03:36.383Z,45.72
2023-03-03T12:06:27.407Z,52.67
2023-03-03T12:09:14.215Z,48.85
2023-03-03T12:12:13.358Z,45.10
2023-03-03T12:15:04.520Z,46.72
2023-03-03T12:17:59.035Z,49.03
2023-03-03T12:20:39.248Z,44.90
2023-03-03T12:23:24.984Z,44.28
2023-03-03T12:26:14.739Z,48.85
2023-03-03T12:28:52.260Z,46.75
2023-03-03T12:31:44.168Z,49.05
2023-03-03T12:34:43.228Z,44.78
2023-03-03T12:37:27.451Z,45.10
2023-03-03T12:40:10.030Z,38.83
2023-03-03T12:42:54.186Z,37.72
2023-03-03T12:45:33.114Z,49.10
2023-03-03T12:48:40.945Z,43.80
2023-03-03T12:51:56.226Z,45.05
2023-03-03T12:54:44.399Z,44.38
2023-03-03T12:57:18.189Z,43.33
2023-03-03T12:59:55.205Z,42.90
2023-03-03T13:02:46.910Z,52.65
2023-03-03T13:05:34.650Z,38.33
2023-03-03T13:08:21.247Z,45.72
2023-03-03T13:10:48.043Z,44.65
2023-03-03T13:13:41.021Z,43.85
2023-03-03T13:16:24.138Z,50.22
2023-03-03T13:19:21.959Z,48.10
2023-03-03T13:22:17.273Z,50.78
2023-03-03T13:25:28.369Z,45.72
2023-03-03T13:28:14.048Z,49.15
2023-03-03T13:30:56.901Z,45.92
2023-03-03T13:33:34.794Z,46.20
2023-03-03T13:36:08.680Z,41.67
2023-03-03T13:38:47.058Z,43.78
2023-03-03T13:41:42.161Z,45.25
2023-03-03T13:44:24.818Z,39.78
2023-03-03T13:47:13.854Z,52.10
2023-03-03T13:50:04.190Z,42.25
2023-03-03T13:52:36.141Z,48.63
2023-03-03T13:55:16.144Z,41.85
2023-03-03T13:58:01.840Z,46.85
2023-03-03T14:00:53.464Z,46.95
2023-03-03T14:03:55.472Z,48.72
2023-03-03T14:06:30.646Z,55.03
2023-03-03T14:09:43.879Z,50.97
2023-03-03T14:12:21.608Z,54.80
2023-03-03T14:15:17.373Z,52.42
2023-03-03T14:18:38.303Z,42.67
2023-03-03T14:21:18.892Z,47.65
2023-03-03T14:23:57.300Z,53.47
2023-03-03T14:26:24.032Z,50.90
2023-03-03T14:28:53.093Z,47.03
2023-03-03T14:31:26.338Z,44.83
2023-03-03T14:34:21.721Z,51.95
2023-03-03T14:36:50.175Z,42.05
2023-03-03T14:39:34.225Z,52.25
2023-03-03T14:42:05.206Z,50.05
2023-03-03T14:44:38.708Z,51.67
2023-03-03T14:47:17.725Z,51.55
2023-03-03T14:49:44.592Z,46.45
2023-03-03T14:52:17.549Z,48.83
2023-03-03T14:54:53.252Z,54.15
2023-03-03T14:57:41.501Z,48.47
2023-03-03T15:00:27.776Z,52.35
2023-03-03T15:03:23.366Z,47.33
2023-03-03T15:06:03.012Z,54.85
2023-03-03T15:08:35.911Z,47.67
2023-03-03T15:11:17.628Z,64.97
2023-03-03T15:13:49.081Z,48.72
2023-03-03T15:16:35.100Z,66.57
2023-03-03T15:19:33.489Z,44.22
2023-03-03T15:22:37.333Z,47.13
2023-03-03T15:25:24.108Z,67.53
2023-03-03T15:28:08.219Z,51.03
2023-03-03T15:30:52.864Z,49.58
2023-03-03T15:33:30.673Z,50.40
2023-03-03T15:36:28.750Z,49.58
2023-03-03T15:39:16.770Z,46.95
2023-03-03T15:42:04.039Z,52.20
2023-03-03T15:44:52.773Z,50.25
2023-03-03T15:47:49.093Z,52.15
2023-03-03T15:50:21.597Z,49.67
2023-03-03T15:53:21.902Z,55.92
2023-03-03T15:56:13.514Z,49.67
2023-03-03T15:59:07.462Z,46.92
2023-03-03T16:01:39.180Z,49.47
2023-03-03T16:04:15.838Z,46.13
2023-03-03T16:07:13.987Z,58.75
2023-03-03T16:10:05.275Z,55.22
2023-03-03T16:12:53.715Z,47.40
2023-03-03T16:15:50.924Z,47.08
2023-03-03T16:18:37.555Z,50.22
2023-03-03T16:21:29.787Z,52.58
2023-03-03T16:23:59.654Z,55.05
2023-03-03T16:26:52.908Z,55.15
2023-03-03T16:29:38.613Z,63.40
2023-03-03T16:32:32.752Z,50.95
2023-03-03T16:35:17.855Z,49.28
2023-03-03T16:38:01.900Z,60.25
2023-03-03T16:40:50.096Z,50.83
2023-03-03T16:43:40.861Z,50.15
2023-03-03T16:46:16.487Z,41.10
2023-03-03T16:49:02.303Z,47.88
2023-03-03T16:51:43.715Z,50.65
2023-03-03T16:54:27.142Z,48.92
2023-03-03T16:57:00.029Z,51.63
2023-03-03T16:59:38.724Z,51.58
2023-03-03T17:02:24.285Z,51.38
2023-03-03T17:04:51.106Z,53.95
2023-03-03T17:07:39.512Z,54.30
2023-03-03T17:10:26.378Z,52.65
2023-03-03T17:13:15.593Z,53.90
2023-03-03T17:15:48.396Z,53.05
2023-03-03T17:18:28.318Z,62.17
2023-03-03T17:21:00.309Z,59.63
2023-03-03T17:23:57.797Z,56.08
2023-03-03T17:26:44.065Z,55.35
2023-03-03T17:29:13.895Z,57.13
2023-03-03T17:31:47.046Z,56.08
2023-03-03T17:34:31.598Z,57.38
2023-03-03T17:37:37.042Z,56.72
2023-03-03T17:40:15.338Z,55.05
2023-03-03T17:42:54.168Z,54.58
2023-03-03T17:45:22.760Z,57.60
2023-03-03T17:48:05.977Z,58.65
2023-03-03T17:50:47.763Z,60.30
2023-03-03T17:53:42.967Z,63.75
2023-03-03T17:56:22.527Z,63.20
2023-03-03T17:59:22.983Z,53.17
2023-03-03T18:02:05.432Z,60.88
2023-03-03T18:07:56.167Z,72.72
2023-03-03T18:10:43.936Z,63.53
2023-03-03T18:13:44.417Z,57.38
2023-03-03T18:16:36.102Z,65.95
2023-03-03T18:19:17.813Z,66.85
2023-03-03T18:22:10.677Z,64.13
2023-03-03T18:25:01.765Z,69.25
2023-03-03T18:27:31.966Z,67.78
2023-03-03T18:30:18.552Z,72.85
2023-03-03T18:33:08.065Z,64.68
2023-03-03T18:35:38.424Z,71.38
2023-03-03T18:38:29.092Z,65.05
2023-03-03T18:41:04.738Z,62.35
2023-03-03T18:43:59.305Z,63.67
2023-03-03T18:46:26.015Z,57.67
2023-03-03T18:49:06.108Z,83.13
2023-03-03T18:52:13.436Z,68.82
2023-03-03T18:54:41.326Z,70.47
2023-03-03T18:57:17.516Z,70.32
2023-03-03T19:00:15.548Z,67.38
2023-03-03T19:02:58.085Z,81.28
2023-03-03T19:07:58.497Z,65.82
2023-03-03T19:10:50.983Z,66.80
2023-03-03T19:13:26.914Z,71.63
2023-03-03T19:15:56.423Z,66.50
2023-03-03T19:18:26.863Z,59.80
2023-03-03T19:21:05.730Z,57.38
2023-03-03T19:23:51.414Z,73.32
2023-03-03T19:26:30.349Z,70.00
2023-03-03T19:29:21.478Z,59.20
2023-03-03T19:32:09.458Z,63.53
2023-03-03T19:34:59.063Z,69.90
2023-03-03T19:37:58.226Z,64.03
2023-03-03T19:40:38.336Z,70.20
2023-03-03T19:43:42.184Z,70.20
2023-03-03T19:46:33.877Z,71.88
2023-03-03T19:49:27.027Z,64.30
2023-03-03T19:52:21.092Z,73.60
2023-03-03T19:55:18.571Z,62.53
2023-03-03T19:58:01.980Z,85.65
2023-03-03T20:00:42.759Z,70.38
2023-03-03T20:03:31.448Z,68.45
2023-03-03T20:06:01.184Z,59.63
2023-03-03T20:08:41.113Z,57.42
2023-03-03T20:11:17.408Z,64.18
2023-03-03T20:13:56.258Z,54.10
2023-03-03T20:16:23.042Z,54.45
2023-03-03T20:19:20.829Z,56.63
2023-03-03T20:22:24.835Z,57.65
2023-03-03T20:25:21.497Z,52.53
2023-03-03T20:28:07.315Z,59.20
2023-03-03T20:30:55.615Z,57.58
2023-03-03T20:33:43.975Z,58.90
2023-03-03T20:36:19.779Z,52.88
2023-03-03T20:39:02.355Z,65.30
2023-03-03T20:42:11.370Z,47.75
2023-03-03T20:44:44.065Z,51.28
2023-03-03T20:47:20.763Z,48.20
2023-03-03T20:50:15.479Z,55.97
2023-03-03T20:53:09.773Z,48.22
2023-03-03T20:55:57.846Z,51.10
2023-03-03T20:58:43.186Z,56.85
2023-03-03T21:01:17.554Z,45.33
2023-03-03T21:03:45.437Z,51.97
2023-03-03T21:06:18.092Z,53.45
2023-03-03T21:08:53.180Z,56.42
2023-03-03T21:11:32.107Z,61.47
2023-03-03T21:14:00.041Z,60.40
2023-03-03T21:16:26.698Z,55.22
2023-03-03T21:19:00.658Z,53.85
2023-03-03T21:21:35.987Z,60.10
2023-03-03T21:24:03.562Z,57.78
2023-03-03T21:26:48.312Z,56.35
2023-03-03T21:29:21.097Z,54.13
2023-03-03T21:31:55.314Z,55.78
2023-03-03T21:34:35.577Z,52.95
2023-03-03T21:37:15.280Z,61.22
2023-03-03T21:39:43.799Z,52.15
2023-03-03T21:42:21.387Z,49.20
2023-03-03T21:44:49.722Z,56.17
2023-03-03T21:47:28.736Z,52.63
2023-03-03T21:49:55.454Z,55.97
2023-03-03T21:52:22.561Z,104.35
2023-03-03T21:54:55.102Z,88.32
2023-03-03T21:57:22.234Z,82.72
2023-03-03T21:59:48.827Z,73.45
2023-03-03T22:02:15.413Z,72.07
2023-03-03T22:04:42.240Z,60.50
2023-03-03T22:07:09.876Z,58.03
2023-03-03T22:09:37.303Z,52.92
2023-03-03T22:12:05.363Z,56.90
2023-03-03T22:14:32.186Z,59.08
2023-03-03T22:16:59.378Z,55.35
2023-03-03T22:19:26.158Z,78.05
2023-03-03T22:21:52.986Z,69.43
2023-03-03T22:24:19.843Z,58.97
2023-03-03T22:26:46.754Z,56.65
2023-03-03T22:29:16.389Z,51.90
2023-03-03T22:31:43.305Z,57.10
2023-03-03T22:34:10.504Z,50.08
2023-03-03T22:36:37.235Z,51.15
2023-03-03T22:39:04.077Z,55.65
2023-03-03T22:41:31.747Z,56.15
2023-03-03T22:43:58.632Z,51.85
2023-03-03T22:46:25.597Z,51.67
2023-03-03T22:48:52.561Z,48.75
2023-03-03T22:51:22.104Z,46.83
2023-03-03T22:53:48.957Z,50.05
2023-03-03T22:56:15.752Z,49.55
2023-03-03T22:58:42.699Z,50.97
2023-03-03T23:01:09.517Z,62.38
2023-03-03T23:03:37.259Z,50.03
2023-03-03T23:06:04.448Z,47.50
2023-03-03T23:08:31.270Z,49.58
2023-03-03T23:10:58.038Z,58.45
2023-03-03T23:13:30.656Z,59.10
2023-03-03T23:16:00.134Z,61.50
2023-03-03T23:18:28.536Z,59.78
2023-03-03T23:21:00.876Z,58.88
2023-03-03T23:23:27.598Z,68.75
2023-03-03T23:25:54.351Z,78.32
2023-03-03T23:28:21.060Z,67.53
2023-03-03T23:30:47.773Z,64.78
2023-03-03T23:33:17.265Z,73.68
2023-03-03T23:35:45.417Z,54.92
2023-03-03T23:38:23.334Z,54.60
2023-03-03T23:40:50.000Z,51.47
2023-03-03T23:43:16.670Z,53.53
2023-03-03T23:45:43.518Z,54.38
2023-03-03T23:48:10.596Z,57.85
2023-03-03T23:50:38.004Z,51.85
2023-03-03T23:53:05.645Z,47.58
2023-03-03T23:55:38.778Z,49.10
2023-03-03T23:58:05.805Z,53.53
